Adrian, Illinois
Current Conditions -  °F | °C
As of 3:55 AM on Friday 28 Nov 2014 (Local Time) from KFSW Reporting Station
Clear Clear  
Wind Chill: -14°   Ceiling: Unl
Heat Index: -8°   Visibility: 10mi
Dew Point: -12°   Wind: 8mph
Humidity: 73%   Direction: 140°SE
Pressure: 30.25"   Gusts: NA
Location:  40.52°N, 91.17°W
Report Text: KFSW 280955Z AUTO 14007KT 10SM CLR M08/M12 A3025 RMK AO2
Loading
Personal Weather Stations






























Interactive Weather Map New forecast layout! Learn more

10-Day Weather Forecast

Advertisements
Track Severe Weather on mobile